sensor_id;sensor_type;location;lat;lon;timestamp;P1;durP1;ratioP1;P2;durP2;ratioP2
20511;SDS011;10414;52.074;5.126;2023-02-18T00:02:13;50.95;;;17.88;;
20511;SDS011;10414;52.074;5.126;2023-02-18T00:04:40;49.88;;;17.40;;
20511;SDS011;10414;52.074;5.126;2023-02-18T00:07:06;48.88;;;17.17;;
20511;SDS011;10414;52.074;5.126;2023-02-18T00:09:33;50.67;;;17.73;;
20511;SDS011;10414;52.074;5.126;2023-02-18T00:12:01;53.40;;;17.77;;
20511;SDS011;10414;52.074;5.126;2023-02-18T00:14:28;58.15;;;18.50;;
20511;SDS011;10414;52.074;5.126;2023-02-18T00:16:55;60.08;;;17.65;;
20511;SDS011;10414;52.074;5.126;2023-02-18T00:19:22;55.17;;;17.92;;
20511;SDS011;10414;52.074;5.126;2023-02-18T00:21:49;58.95;;;18.80;;
20511;SDS011;10414;52.074;5.126;2023-02-18T00:24:16;58.88;;;18.50;;
20511;SDS011;10414;52.074;5.126;2023-02-18T00:26:43;64.10;;;19.70;;
20511;SDS011;10414;52.074;5.126;2023-02-18T00:29:12;66.07;;;18.77;;
20511;SDS011;10414;52.074;5.126;2023-02-18T00:31:39;59.55;;;17.88;;
20511;SDS011;10414;52.074;5.126;2023-02-18T00:34:06;60.75;;;16.92;;
20511;SDS011;10414;52.074;5.126;2023-02-18T00:36:33;59.00;;;18.33;;
20511;SDS011;10414;52.074;5.126;2023-02-18T00:39:02;55.65;;;18.33;;
20511;SDS011;10414;52.074;5.126;2023-02-18T00:41:34;60.05;;;16.00;;
20511;SDS011;10414;52.074;5.126;2023-02-18T00:44:01;51.88;;;16.52;;
20511;SDS011;10414;52.074;5.126;2023-02-18T00:46:30;52.25;;;16.98;;
20511;SDS011;10414;52.074;5.126;2023-02-18T00:48:57;52.10;;;15.13;;
20511;SDS011;10414;52.074;5.126;2023-02-18T00:51:24;50.25;;;15.13;;
20511;SDS011;10414;52.074;5.126;2023-02-18T00:53:51;49.00;;;14.82;;
20511;SDS011;10414;52.074;5.126;2023-02-18T00:56:18;57.30;;;15.27;;
20511;SDS011;10414;52.074;5.126;2023-02-18T00:58:45;52.00;;;14.65;;
20511;SDS011;10414;52.074;5.126;2023-02-18T01:01:12;53.65;;;15.35;;
20511;SDS011;10414;52.074;5.126;2023-02-18T01:03:41;48.08;;;14.75;;
20511;SDS011;10414;52.074;5.126;2023-02-18T01:06:08;45.30;;;13.55;;
20511;SDS011;10414;52.074;5.126;2023-02-18T01:08:37;47.25;;;12.90;;
20511;SDS011;10414;52.074;5.126;2023-02-18T01:11:05;45.38;;;13.93;;
20511;SDS011;10414;52.074;5.126;2023-02-18T01:13:32;50.20;;;13.18;;
20511;SDS011;10414;52.074;5.126;2023-02-18T01:15:59;49.55;;;13.35;;
20511;SDS011;10414;52.074;5.126;2023-02-18T01:18:26;46.47;;;12.15;;
20511;SDS011;10414;52.074;5.126;2023-02-18T01:20:54;39.67;;;11.77;;
20511;SDS011;10414;52.074;5.126;2023-02-18T01:23:22;54.35;;;13.73;;
20511;SDS011;10414;52.074;5.126;2023-02-18T01:25:49;40.17;;;12.32;;
20511;SDS011;10414;52.074;5.126;2023-02-18T01:28:16;44.25;;;12.80;;
20511;SDS011;10414;52.074;5.126;2023-02-18T01:30:45;39.88;;;12.18;;
20511;SDS011;10414;52.074;5.126;2023-02-18T01:33:12;43.42;;;12.38;;
20511;SDS011;10414;52.074;5.126;2023-02-18T01:35:39;40.45;;;12.45;;
20511;SDS011;10414;52.074;5.126;2023-02-18T01:38:07;44.50;;;12.77;;
20511;SDS011;10414;52.074;5.126;2023-02-18T01:40:34;44.10;;;11.40;;
20511;SDS011;10414;52.074;5.126;2023-02-18T01:43:02;47.13;;;13.40;;
20511;SDS011;10414;52.074;5.126;2023-02-18T01:48:17;45.85;;;12.95;;
20511;SDS011;10414;52.074;5.126;2023-02-18T01:50:48;55.92;;;12.48;;
20511;SDS011;10414;52.074;5.126;2023-02-18T01:53:20;50.95;;;12.43;;
20511;SDS011;10414;52.074;5.126;2023-02-18T01:55:52;54.42;;;13.70;;
20511;SDS011;10414;52.074;5.126;2023-02-18T01:58:19;50.65;;;13.82;;
20511;SDS011;10414;52.074;5.126;2023-02-18T02:00:46;51.22;;;14.77;;
20511;SDS011;10414;52.074;5.126;2023-02-18T02:03:13;59.58;;;16.23;;
20511;SDS011;10414;52.074;5.126;2023-02-18T02:05:39;54.25;;;14.63;;
20511;SDS011;10414;52.074;5.126;2023-02-18T02:08:06;53.75;;;14.95;;
20511;SDS011;10414;52.074;5.126;2023-02-18T02:10:38;60.25;;;15.77;;
20511;SDS011;10414;52.074;5.126;2023-02-18T02:13:14;62.65;;;16.13;;
20511;SDS011;10414;52.074;5.126;2023-02-18T02:15:48;61.97;;;15.80;;
20511;SDS011;10414;52.074;5.126;2023-02-18T02:21:17;53.72;;;15.48;;
20511;SDS011;10414;52.074;5.126;2023-02-18T02:24:11;60.95;;;16.75;;
20511;SDS011;10414;52.074;5.126;2023-02-18T02:27:13;52.75;;;15.27;;
20511;SDS011;10414;52.074;5.126;2023-02-18T02:30:08;62.22;;;16.27;;
20511;SDS011;10414;52.074;5.126;2023-02-18T02:33:07;57.13;;;15.65;;
20511;SDS011;10414;52.074;5.126;2023-02-18T02:35:57;61.88;;;15.73;;
20511;SDS011;10414;52.074;5.126;2023-02-18T02:38:29;54.75;;;14.60;;
20511;SDS011;10414;52.074;5.126;2023-02-18T02:41:01;54.00;;;16.73;;
20511;SDS011;10414;52.074;5.126;2023-02-18T02:43:39;54.90;;;14.38;;
20511;SDS011;10414;52.074;5.126;2023-02-18T02:46:16;60.25;;;16.20;;
20511;SDS011;10414;52.074;5.126;2023-02-18T02:48:46;67.03;;;16.23;;
20511;SDS011;10414;52.074;5.126;2023-02-18T02:51:34;65.07;;;17.35;;
20511;SDS011;10414;52.074;5.126;2023-02-18T02:54:11;57.90;;;15.43;;
20511;SDS011;10414;52.074;5.126;2023-02-18T02:56:42;60.90;;;15.60;;
20511;SDS011;10414;52.074;5.126;2023-02-18T02:59:10;56.95;;;15.60;;
20511;SDS011;10414;52.074;5.126;2023-02-18T03:01:43;51.83;;;14.70;;
20511;SDS011;10414;52.074;5.126;2023-02-18T03:04:22;53.72;;;15.57;;
20511;SDS011;10414;52.074;5.126;2023-02-18T03:07:20;53.70;;;15.30;;
20511;SDS011;10414;52.074;5.126;2023-02-18T03:10:10;51.85;;;14.40;;
20511;SDS011;10414;52.074;5.126;2023-02-18T03:12:48;54.63;;;14.15;;
20511;SDS011;10414;52.074;5.126;2023-02-18T03:15:23;59.35;;;15.18;;
20511;SDS011;10414;52.074;5.126;2023-02-18T03:17:57;53.88;;;14.68;;
20511;SDS011;10414;52.074;5.126;2023-02-18T03:20:30;55.95;;;15.00;;
20511;SDS011;10414;52.074;5.126;2023-02-18T03:23:03;46.92;;;11.82;;
20511;SDS011;10414;52.074;5.126;2023-02-18T03:25:35;41.08;;;12.25;;
20511;SDS011;10414;52.074;5.126;2023-02-18T03:28:05;40.03;;;10.50;;
20511;SDS011;10414;52.074;5.126;2023-02-18T03:30:38;33.05;;;8.55;;
20511;SDS011;10414;52.074;5.126;2023-02-18T03:33:08;29.50;;;8.02;;
20511;SDS011;10414;52.074;5.126;2023-02-18T03:35:40;28.45;;;8.45;;
20511;SDS011;10414;52.074;5.126;2023-02-18T03:38:11;24.50;;;6.68;;
20511;SDS011;10414;52.074;5.126;2023-02-18T03:40:42;21.05;;;6.57;;
20511;SDS011;10414;52.074;5.126;2023-02-18T03:43:09;17.63;;;6.80;;
20511;SDS011;10414;52.074;5.126;2023-02-18T03:45:36;20.13;;;5.80;;
20511;SDS011;10414;52.074;5.126;2023-02-18T03:48:03;18.10;;;5.72;;
20511;SDS011;10414;52.074;5.126;2023-02-18T03:50:30;19.45;;;5.28;;
20511;SDS011;10414;52.074;5.126;2023-02-18T03:52:57;20.02;;;6.60;;
20511;SDS011;10414;52.074;5.126;2023-02-18T03:55:26;20.75;;;6.03;;
20511;SDS011;10414;52.074;5.126;2023-02-18T03:57:53;18.55;;;5.50;;
20511;SDS011;10414;52.074;5.126;2023-02-18T04:00:20;21.25;;;6.07;;
20511;SDS011;10414;52.074;5.126;2023-02-18T04:02:47;15.27;;;5.57;;
20511;SDS011;10414;52.074;5.126;2023-02-18T04:05:14;17.23;;;5.53;;
20511;SDS011;10414;52.074;5.126;2023-02-18T04:07:41;17.33;;;5.80;;
20511;SDS011;10414;52.074;5.126;2023-02-18T04:10:08;16.55;;;5.47;;
20511;SDS011;10414;52.074;5.126;2023-02-18T04:12:36;16.88;;;5.35;;
20511;SDS011;10414;52.074;5.126;2023-02-18T04:15:03;15.27;;;5.40;;
20511;SDS011;10414;52.074;5.126;2023-02-18T04:17:31;19.67;;;6.13;;
20511;SDS011;10414;52.074;5.126;2023-02-18T04:19:58;17.77;;;5.75;;
20511;SDS011;10414;52.074;5.126;2023-02-18T04:22:25;16.45;;;5.97;;
20511;SDS011;10414;52.074;5.126;2023-02-18T04:24:52;15.07;;;5.95;;
20511;SDS011;10414;52.074;5.126;2023-02-18T04:27:18;16.15;;;5.63;;
20511;SDS011;10414;52.074;5.126;2023-02-18T04:29:46;18.35;;;5.93;;
20511;SDS011;10414;52.074;5.126;2023-02-18T04:32:13;14.35;;;5.32;;
20511;SDS011;10414;52.074;5.126;2023-02-18T04:34:40;14.95;;;5.80;;
20511;SDS011;10414;52.074;5.126;2023-02-18T04:37:07;16.48;;;5.70;;
20511;SDS011;10414;52.074;5.126;2023-02-18T04:39:34;16.17;;;5.80;;
20511;SDS011;10414;52.074;5.126;2023-02-18T04:42:01;18.42;;;5.50;;
20511;SDS011;10414;52.074;5.126;2023-02-18T04:44:32;15.95;;;5.43;;
20511;SDS011;10414;52.074;5.126;2023-02-18T04:47:01;16.90;;;5.93;;
20511;SDS011;10414;52.074;5.126;2023-02-18T04:49:28;15.15;;;5.72;;
20511;SDS011;10414;52.074;5.126;2023-02-18T04:51:54;18.45;;;6.85;;
20511;SDS011;10414;52.074;5.126;2023-02-18T04:54:21;20.98;;;6.90;;
20511;SDS011;10414;52.074;5.126;2023-02-18T04:56:48;16.27;;;6.72;;
20511;SDS011;10414;52.074;5.126;2023-02-18T04:59:15;15.18;;;6.47;;
20511;SDS011;10414;52.074;5.126;2023-02-18T05:01:42;18.58;;;6.68;;
20511;SDS011;10414;52.074;5.126;2023-02-18T05:04:10;15.90;;;6.80;;
20511;SDS011;10414;52.074;5.126;2023-02-18T05:06:37;19.45;;;7.55;;
20511;SDS011;10414;52.074;5.126;2023-02-18T05:09:07;18.73;;;7.77;;
20511;SDS011;10414;52.074;5.126;2023-02-18T05:11:34;17.67;;;7.13;;
20511;SDS011;10414;52.074;5.126;2023-02-18T05:14:01;18.00;;;7.25;;
20511;SDS011;10414;52.074;5.126;2023-02-18T05:16:28;20.33;;;6.80;;
20511;SDS011;10414;52.074;5.126;2023-02-18T05:18:55;20.35;;;8.60;;
20511;SDS011;10414;52.074;5.126;2023-02-18T05:21:23;20.00;;;7.65;;
20511;SDS011;10414;52.074;5.126;2023-02-18T05:23:50;19.80;;;7.72;;
20511;SDS011;10414;52.074;5.126;2023-02-18T05:26:16;27.35;;;10.20;;
20511;SDS011;10414;52.074;5.126;2023-02-18T05:28:43;27.38;;;10.57;;
20511;SDS011;10414;52.074;5.126;2023-02-18T05:31:10;29.08;;;11.27;;
20511;SDS011;10414;52.074;5.126;2023-02-18T05:33:37;33.60;;;11.98;;
20511;SDS011;10414;52.074;5.126;2023-02-18T05:36:04;35.15;;;13.10;;
20511;SDS011;10414;52.074;5.126;2023-02-18T05:38:33;36.05;;;12.68;;
20511;SDS011;10414;52.074;5.126;2023-02-18T05:40:59;31.60;;;12.30;;
20511;SDS011;10414;52.074;5.126;2023-02-18T05:43:26;33.88;;;11.63;;
20511;SDS011;10414;52.074;5.126;2023-02-18T05:45:53;26.50;;;11.25;;
20511;SDS011;10414;52.074;5.126;2023-02-18T05:48:20;25.75;;;10.15;;
20511;SDS011;10414;52.074;5.126;2023-02-18T05:50:47;23.48;;;9.20;;
20511;SDS011;10414;52.074;5.126;2023-02-18T05:53:17;25.02;;;9.40;;
20511;SDS011;10414;52.074;5.126;2023-02-18T05:55:46;22.88;;;9.38;;
20511;SDS011;10414;52.074;5.126;2023-02-18T05:58:12;25.10;;;9.63;;
20511;SDS011;10414;52.074;5.126;2023-02-18T06:00:41;28.30;;;10.25;;
20511;SDS011;10414;52.074;5.126;2023-02-18T06:03:08;22.98;;;9.13;;
20511;SDS011;10414;52.074;5.126;2023-02-18T06:05:34;28.48;;;9.45;;
20511;SDS011;10414;52.074;5.126;2023-02-18T06:08:01;25.48;;;10.13;;
20511;SDS011;10414;52.074;5.126;2023-02-18T06:10:28;29.70;;;10.43;;
20511;SDS011;10414;52.074;5.126;2023-02-18T06:12:56;25.50;;;10.00;;
20511;SDS011;10414;52.074;5.126;2023-02-18T06:15:24;28.33;;;11.02;;
20511;SDS011;10414;52.074;5.126;2023-02-18T06:17:51;31.58;;;12.00;;
20511;SDS011;10414;52.074;5.126;2023-02-18T06:20:17;28.42;;;10.50;;
20511;SDS011;10414;52.074;5.126;2023-02-18T06:22:44;30.02;;;10.95;;
20511;SDS011;10414;52.074;5.126;2023-02-18T06:25:11;27.27;;;9.90;;
20511;SDS011;10414;52.074;5.126;2023-02-18T06:27:38;26.80;;;10.32;;
20511;SDS011;10414;52.074;5.126;2023-02-18T06:30:07;28.25;;;9.38;;
20511;SDS011;10414;52.074;5.126;2023-02-18T06:32:34;25.40;;;8.67;;
20511;SDS011;10414;52.074;5.126;2023-02-18T06:35:01;29.00;;;9.27;;
20511;SDS011;10414;52.074;5.126;2023-02-18T06:37:28;30.98;;;10.23;;
20511;SDS011;10414;52.074;5.126;2023-02-18T06:39:55;29.58;;;10.35;;
20511;SDS011;10414;52.074;5.126;2023-02-18T06:42:22;27.77;;;10.95;;
20511;SDS011;10414;52.074;5.126;2023-02-18T06:44:49;34.20;;;10.23;;
20511;SDS011;10414;52.074;5.126;2023-02-18T06:47:17;32.88;;;10.23;;
20511;SDS011;10414;52.074;5.126;2023-02-18T06:49:44;35.50;;;11.60;;
20511;SDS011;10414;52.074;5.126;2023-02-18T06:52:10;25.85;;;10.48;;
20511;SDS011;10414;52.074;5.126;2023-02-18T06:54:37;29.90;;;11.90;;
20511;SDS011;10414;52.074;5.126;2023-02-18T06:57:04;34.83;;;11.93;;
20511;SDS011;10414;52.074;5.126;2023-02-18T06:59:32;33.08;;;11.85;;
20511;SDS011;10414;52.074;5.126;2023-02-18T07:01:58;34.25;;;11.68;;
20511;SDS011;10414;52.074;5.126;2023-02-18T07:04:27;37.92;;;12.27;;
20511;SDS011;10414;52.074;5.126;2023-02-18T07:06:53;35.95;;;12.50;;
20511;SDS011;10414;52.074;5.126;2023-02-18T07:09:20;33.67;;;12.15;;
20511;SDS011;10414;52.074;5.126;2023-02-18T07:11:47;32.67;;;12.05;;
20511;SDS011;10414;52.074;5.126;2023-02-18T07:14:14;31.10;;;11.25;;
20511;SDS011;10414;52.074;5.126;2023-02-18T07:16:41;33.13;;;12.07;;
20511;SDS011;10414;52.074;5.126;2023-02-18T07:19:07;30.20;;;12.45;;
20511;SDS011;10414;52.074;5.126;2023-02-18T07:21:35;31.45;;;12.50;;
20511;SDS011;10414;52.074;5.126;2023-02-18T07:24:02;29.35;;;12.27;;
20511;SDS011;10414;52.074;5.126;2023-02-18T07:26:30;32.15;;;11.50;;
20511;SDS011;10414;52.074;5.126;2023-02-18T07:28:57;33.40;;;11.25;;
20511;SDS011;10414;52.074;5.126;2023-02-18T07:31:24;27.67;;;10.27;;
20511;SDS011;10414;52.074;5.126;2023-02-18T07:33:51;30.88;;;9.75;;
20511;SDS011;10414;52.074;5.126;2023-02-18T07:36:19;26.48;;;8.05;;
20511;SDS011;10414;52.074;5.126;2023-02-18T07:38:47;24.23;;;8.93;;
20511;SDS011;10414;52.074;5.126;2023-02-18T07:41:15;27.42;;;8.50;;
20511;SDS011;10414;52.074;5.126;2023-02-18T07:43:44;22.10;;;7.78;;
20511;SDS011;10414;52.074;5.126;2023-02-18T07:46:10;21.45;;;7.25;;
20511;SDS011;10414;52.074;5.126;2023-02-18T07:48:37;25.00;;;7.15;;
20511;SDS011;10414;52.074;5.126;2023-02-18T07:51:04;23.38;;;5.63;;
20511;SDS011;10414;52.074;5.126;2023-02-18T07:53:31;21.35;;;5.28;;
20511;SDS011;10414;52.074;5.126;2023-02-18T07:56:00;20.92;;;4.93;;
20511;SDS011;10414;52.074;5.126;2023-02-18T07:58:28;24.55;;;5.30;;
20511;SDS011;10414;52.074;5.126;2023-02-18T08:00:56;28.77;;;4.38;;
20511;SDS011;10414;52.074;5.126;2023-02-18T08:03:23;22.88;;;4.07;;
20511;SDS011;10414;52.074;5.126;2023-02-18T08:05:51;16.23;;;2.63;;
20511;SDS011;10414;52.074;5.126;2023-02-18T08:08:20;22.45;;;5.50;;
20511;SDS011;10414;52.074;5.126;2023-02-18T08:10:49;15.70;;;3.20;;
20511;SDS011;10414;52.074;5.126;2023-02-18T08:13:19;18.75;;;2.90;;
20511;SDS011;10414;52.074;5.126;2023-02-18T08:15:46;16.20;;;3.38;;
20511;SDS011;10414;52.074;5.126;2023-02-18T08:18:14;15.10;;;2.58;;
20511;SDS011;10414;52.074;5.126;2023-02-18T08:20:43;19.45;;;3.22;;
20511;SDS011;10414;52.074;5.126;2023-02-18T08:23:12;15.30;;;2.92;;
20511;SDS011;10414;52.074;5.126;2023-02-18T08:25:39;17.55;;;2.63;;
20511;SDS011;10414;52.074;5.126;2023-02-18T08:28:10;15.82;;;2.25;;
20511;SDS011;10414;52.074;5.126;2023-02-18T08:30:38;17.30;;;2.60;;
20511;SDS011;10414;52.074;5.126;2023-02-18T08:33:09;19.13;;;2.63;;
20511;SDS011;10414;52.074;5.126;2023-02-18T08:35:35;17.05;;;2.53;;
20511;SDS011;10414;52.074;5.126;2023-02-18T08:38:02;23.50;;;3.15;;
20511;SDS011;10414;52.074;5.126;2023-02-18T08:40:29;24.60;;;3.13;;
20511;SDS011;10414;52.074;5.126;2023-02-18T08:42:56;16.70;;;2.67;;
20511;SDS011;10414;52.074;5.126;2023-02-18T08:45:23;12.77;;;2.72;;
20511;SDS011;10414;52.074;5.126;2023-02-18T08:47:51;14.35;;;2.30;;
20511;SDS011;10414;52.074;5.126;2023-02-18T08:50:19;16.65;;;2.58;;
20511;SDS011;10414;52.074;5.126;2023-02-18T08:52:50;17.38;;;3.03;;
20511;SDS011;10414;52.074;5.126;2023-02-18T08:55:17;13.32;;;2.72;;
20511;SDS011;10414;52.074;5.126;2023-02-18T08:57:45;11.50;;;2.22;;
20511;SDS011;10414;52.074;5.126;2023-02-18T09:00:13;14.30;;;2.22;;
20511;SDS011;10414;52.074;5.126;2023-02-18T09:02:41;16.13;;;2.28;;
20511;SDS011;10414;52.074;5.126;2023-02-18T09:05:10;10.93;;;2.55;;
20511;SDS011;10414;52.074;5.126;2023-02-18T09:07:37;18.45;;;3.00;;
20511;SDS011;10414;52.074;5.126;2023-02-18T09:10:05;8.63;;;1.90;;
20511;SDS011;10414;52.074;5.126;2023-02-18T09:12:33;16.45;;;3.00;;
20511;SDS011;10414;52.074;5.126;2023-02-18T09:15:00;10.90;;;2.22;;
20511;SDS011;10414;52.074;5.126;2023-02-18T09:17:27;15.15;;;2.72;;
20511;SDS011;10414;52.074;5.126;2023-02-18T09:19:54;14.43;;;2.17;;
20511;SDS011;10414;52.074;5.126;2023-02-18T09:22:22;17.23;;;3.22;;
20511;SDS011;10414;52.074;5.126;2023-02-18T09:24:49;13.48;;;2.33;;
20511;SDS011;10414;52.074;5.126;2023-02-18T09:27:16;13.52;;;2.10;;
20511;SDS011;10414;52.074;5.126;2023-02-18T09:29:43;13.88;;;2.20;;
20511;SDS011;10414;52.074;5.126;2023-02-18T09:32:10;9.63;;;2.20;;
20511;SDS011;10414;52.074;5.126;2023-02-18T09:34:37;11.07;;;2.25;;
20511;SDS011;10414;52.074;5.126;2023-02-18T09:37:04;10.68;;;2.47;;
20511;SDS011;10414;52.074;5.126;2023-02-18T09:39:32;12.80;;;2.10;;
20511;SDS011;10414;52.074;5.126;2023-02-18T09:41:59;19.30;;;2.83;;
20511;SDS011;10414;52.074;5.126;2023-02-18T09:44:28;12.95;;;2.17;;
20511;SDS011;10414;52.074;5.126;2023-02-18T09:47:01;11.90;;;2.28;;
20511;SDS011;10414;52.074;5.126;2023-02-18T09:49:31;14.90;;;2.47;;
20511;SDS011;10414;52.074;5.126;2023-02-18T09:52:02;15.88;;;2.28;;
20511;SDS011;10414;52.074;5.126;2023-02-18T09:54:33;13.27;;;2.78;;
20511;SDS011;10414;52.074;5.126;2023-02-18T09:57:00;12.30;;;2.03;;
20511;SDS011;10414;52.074;5.126;2023-02-18T09:59:29;15.40;;;2.50;;
20511;SDS011;10414;52.074;5.126;2023-02-18T10:01:57;15.23;;;2.67;;
20511;SDS011;10414;52.074;5.126;2023-02-18T10:04:26;15.85;;;2.75;;
20511;SDS011;10414;52.074;5.126;2023-02-18T10:06:56;14.68;;;2.22;;
20511;SDS011;10414;52.074;5.126;2023-02-18T10:09:24;14.23;;;3.13;;
20511;SDS011;10414;52.074;5.126;2023-02-18T10:11:59;12.98;;;2.58;;
20511;SDS011;10414;52.074;5.126;2023-02-18T10:14:33;13.82;;;2.58;;
20511;SDS011;10414;52.074;5.126;2023-02-18T10:17:00;14.68;;;2.83;;
20511;SDS011;10414;52.074;5.126;2023-02-18T10:19:28;17.80;;;2.80;;
20511;SDS011;10414;52.074;5.126;2023-02-18T10:21:57;10.20;;;2.35;;
20511;SDS011;10414;52.074;5.126;2023-02-18T10:24:27;10.98;;;2.60;;
20511;SDS011;10414;52.074;5.126;2023-02-18T10:26:58;12.50;;;2.40;;
20511;SDS011;10414;52.074;5.126;2023-02-18T10:29:26;14.15;;;2.88;;
20511;SDS011;10414;52.074;5.126;2023-02-18T10:31:56;13.65;;;2.72;;
20511;SDS011;10414;52.074;5.126;2023-02-18T10:34:35;18.65;;;2.60;;
20511;SDS011;10414;52.074;5.126;2023-02-18T10:37:07;22.70;;;3.38;;
20511;SDS011;10414;52.074;5.126;2023-02-18T10:39:51;16.13;;;2.75;;
20511;SDS011;10414;52.074;5.126;2023-02-18T10:42:29;16.83;;;3.15;;
20511;SDS011;10414;52.074;5.126;2023-02-18T10:45:08;19.42;;;2.97;;
20511;SDS011;10414;52.074;5.126;2023-02-18T10:47:46;16.42;;;2.60;;
20511;SDS011;10414;52.074;5.126;2023-02-18T10:50:24;17.15;;;2.70;;
20511;SDS011;10414;52.074;5.126;2023-02-18T10:52:56;21.98;;;2.90;;
20511;SDS011;10414;52.074;5.126;2023-02-18T10:55:35;18.85;;;3.20;;
20511;SDS011;10414;52.074;5.126;2023-02-18T10:58:09;13.07;;;2.92;;
20511;SDS011;10414;52.074;5.126;2023-02-18T11:00:51;13.75;;;2.95;;
20511;SDS011;10414;52.074;5.126;2023-02-18T11:03:20;18.48;;;3.30;;
20511;SDS011;10414;52.074;5.126;2023-02-18T11:05:49;17.50;;;2.53;;
20511;SDS011;10414;52.074;5.126;2023-02-18T11:08:19;18.63;;;2.93;;
20511;SDS011;10414;52.074;5.126;2023-02-18T11:10:49;19.63;;;2.85;;
20511;SDS011;10414;52.074;5.126;2023-02-18T11:13:23;15.45;;;2.42;;
20511;SDS011;10414;52.074;5.126;2023-02-18T11:15:53;13.02;;;2.28;;
20511;SDS011;10414;52.074;5.126;2023-02-18T11:18:35;13.23;;;2.60;;
20511;SDS011;10414;52.074;5.126;2023-02-18T11:21:04;17.58;;;2.42;;
20511;SDS011;10414;52.074;5.126;2023-02-18T11:23:44;16.83;;;2.63;;
20511;SDS011;10414;52.074;5.126;2023-02-18T11:26:13;13.70;;;2.47;;
20511;SDS011;10414;52.074;5.126;2023-02-18T11:28:44;14.35;;;2.63;;
20511;SDS011;10414;52.074;5.126;2023-02-18T11:31:17;13.80;;;3.20;;
20511;SDS011;10414;52.074;5.126;2023-02-18T11:33:47;12.10;;;2.58;;
20511;SDS011;10414;52.074;5.126;2023-02-18T11:36:18;12.20;;;2.78;;
20511;SDS011;10414;52.074;5.126;2023-02-18T11:38:50;15.95;;;3.30;;
20511;SDS011;10414;52.074;5.126;2023-02-18T11:41:20;10.50;;;2.25;;
20511;SDS011;10414;52.074;5.126;2023-02-18T11:43:55;15.02;;;2.67;;
20511;SDS011;10414;52.074;5.126;2023-02-18T11:46:23;10.95;;;3.10;;
20511;SDS011;10414;52.074;5.126;2023-02-18T11:48:52;11.93;;;3.05;;
20511;SDS011;10414;52.074;5.126;2023-02-18T11:51:20;16.48;;;2.33;;
20511;SDS011;10414;52.074;5.126;2023-02-18T11:53:54;18.10;;;2.67;;
20511;SDS011;10414;52.074;5.126;2023-02-18T11:56:24;11.25;;;2.83;;
20511;SDS011;10414;52.074;5.126;2023-02-18T11:58:51;16.75;;;2.88;;
20511;SDS011;10414;52.074;5.126;2023-02-18T12:01:23;12.82;;;2.58;;
20511;SDS011;10414;52.074;5.126;2023-02-18T12:03:57;16.10;;;2.70;;
20511;SDS011;10414;52.074;5.126;2023-02-18T12:06:30;15.88;;;3.08;;
20511;SDS011;10414;52.074;5.126;2023-02-18T12:08:59;12.52;;;2.40;;
20511;SDS011;10414;52.074;5.126;2023-02-18T12:11:30;12.10;;;2.08;;
20511;SDS011;10414;52.074;5.126;2023-02-18T12:14:00;16.83;;;3.00;;
20511;SDS011;10414;52.074;5.126;2023-02-18T12:16:31;13.45;;;3.05;;
20511;SDS011;10414;52.074;5.126;2023-02-18T12:19:09;12.13;;;1.92;;
20511;SDS011;10414;52.074;5.126;2023-02-18T12:22:04;11.38;;;2.10;;
20511;SDS011;10414;52.074;5.126;2023-02-18T12:24:40;11.80;;;2.00;;
20511;SDS011;10414;52.074;5.126;2023-02-18T12:27:21;10.95;;;1.70;;
20511;SDS011;10414;52.074;5.126;2023-02-18T12:30:00;8.18;;;2.22;;
20511;SDS011;10414;52.074;5.126;2023-02-18T12:32:45;9.73;;;2.03;;
20511;SDS011;10414;52.074;5.126;2023-02-18T12:35:27;15.18;;;1.83;;
20511;SDS011;10414;52.074;5.126;2023-02-18T12:38:05;10.60;;;2.08;;
20511;SDS011;10414;52.074;5.126;2023-02-18T12:40:59;12.18;;;1.90;;
20511;SDS011;10414;52.074;5.126;2023-02-18T12:43:36;7.80;;;1.98;;
20511;SDS011;10414;52.074;5.126;2023-02-18T12:46:20;8.45;;;1.98;;
20511;SDS011;10414;52.074;5.126;2023-02-18T12:49:06;9.38;;;2.60;;
20511;SDS011;10414;52.074;5.126;2023-02-18T12:51:57;12.95;;;1.95;;
20511;SDS011;10414;52.074;5.126;2023-02-18T12:54:40;13.48;;;2.13;;
20511;SDS011;10414;52.074;5.126;2023-02-18T12:57:27;11.60;;;1.77;;
20511;SDS011;10414;52.074;5.126;2023-02-18T13:06:07;8.27;;;1.85;;
20511;SDS011;10414;52.074;5.126;2023-02-18T13:08:49;7.90;;;1.65;;
20511;SDS011;10414;52.074;5.126;2023-02-18T13:11:31;14.52;;;2.30;;
20511;SDS011;10414;52.074;5.126;2023-02-18T13:14:07;12.75;;;1.90;;
20511;SDS011;10414;52.074;5.126;2023-02-18T13:16:39;12.02;;;2.40;;
20511;SDS011;10414;52.074;5.126;2023-02-18T13:19:20;12.98;;;2.10;;
20511;SDS011;10414;52.074;5.126;2023-02-18T13:21:51;7.63;;;2.08;;
20511;SDS011;10414;52.074;5.126;2023-02-18T13:24:26;12.98;;;2.10;;
20511;SDS011;10414;52.074;5.126;2023-02-18T13:26:58;14.52;;;2.10;;
20511;SDS011;10414;52.074;5.126;2023-02-18T13:29:33;11.63;;;2.85;;
20511;SDS011;10414;52.074;5.126;2023-02-18T13:32:05;8.48;;;2.20;;
20511;SDS011;10414;52.074;5.126;2023-02-18T13:34:41;8.40;;;2.38;;
20511;SDS011;10414;52.074;5.126;2023-02-18T13:37:17;10.07;;;2.30;;
20511;SDS011;10414;52.074;5.126;2023-02-18T13:39:49;8.68;;;2.33;;
20511;SDS011;10414;52.074;5.126;2023-02-18T13:42:23;12.40;;;2.78;;
20511;SDS011;10414;52.074;5.126;2023-02-18T13:47:57;10.48;;;2.30;;
20511;SDS011;10414;52.074;5.126;2023-02-18T13:50:27;10.13;;;1.90;;
20511;SDS011;10414;52.074;5.126;2023-02-18T13:52:59;8.80;;;1.95;;
20511;SDS011;10414;52.074;5.126;2023-02-18T13:55:39;12.88;;;2.00;;
20511;SDS011;10414;52.074;5.126;2023-02-18T13:58:11;14.00;;;1.98;;
20511;SDS011;10414;52.074;5.126;2023-02-18T14:00:45;10.38;;;2.20;;
20511;SDS011;10414;52.074;5.126;2023-02-18T14:03:19;11.18;;;2.28;;
20511;SDS011;10414;52.074;5.126;2023-02-18T14:05:57;6.80;;;1.80;;
20511;SDS011;10414;52.074;5.126;2023-02-18T14:08:30;9.32;;;1.92;;
20511;SDS011;10414;52.074;5.126;2023-02-18T14:13:51;9.63;;;2.30;;
20511;SDS011;10414;52.074;5.126;2023-02-18T14:16:19;11.52;;;2.30;;
20511;SDS011;10414;52.074;5.126;2023-02-18T14:18:54;10.02;;;2.25;;
20511;SDS011;10414;52.074;5.126;2023-02-18T14:21:38;13.63;;;2.58;;
20511;SDS011;10414;52.074;5.126;2023-02-18T14:24:09;11.52;;;2.25;;
20511;SDS011;10414;52.074;5.126;2023-02-18T14:29:10;10.27;;;2.53;;
20511;SDS011;10414;52.074;5.126;2023-02-18T14:31:44;9.90;;;2.30;;
20511;SDS011;10414;52.074;5.126;2023-02-18T14:34:31;8.52;;;1.73;;
20511;SDS011;10414;52.074;5.126;2023-02-18T14:40:09;8.38;;;1.75;;
20511;SDS011;10414;52.074;5.126;2023-02-18T14:42:52;10.00;;;2.13;;
20511;SDS011;10414;52.074;5.126;2023-02-18T14:45:30;11.43;;;2.30;;
20511;SDS011;10414;52.074;5.126;2023-02-18T14:48:24;9.75;;;2.45;;
20511;SDS011;10414;52.074;5.126;2023-02-18T14:51:21;13.93;;;2.15;;
20511;SDS011;10414;52.074;5.126;2023-02-18T14:53:50;9.13;;;1.83;;
20511;SDS011;10414;52.074;5.126;2023-02-18T14:56:19;11.45;;;2.08;;
20511;SDS011;10414;52.074;5.126;2023-02-18T14:58:47;12.00;;;1.88;;
20511;SDS011;10414;52.074;5.126;2023-02-18T15:01:19;9.23;;;2.10;;
20511;SDS011;10414;52.074;5.126;2023-02-18T15:03:48;10.13;;;2.13;;
20511;SDS011;10414;52.074;5.126;2023-02-18T15:06:23;11.30;;;2.17;;
20511;SDS011;10414;52.074;5.126;2023-02-18T15:08:51;12.52;;;2.65;;
20511;SDS011;10414;52.074;5.126;2023-02-18T15:11:19;13.23;;;2.58;;
20511;SDS011;10414;52.074;5.126;2023-02-18T15:13:48;11.32;;;2.67;;
20511;SDS011;10414;52.074;5.126;2023-02-18T15:16:17;7.15;;;2.38;;